Time;durP1;ratioP1;P1;durP2;ratioP2;P2;SDS_P1;SDS_P2;PMS_P1;PMS_P2;Temp;Humidity;BMP_temperature;BMP_pressure;BME280_temperature;BME280_humidity;BME280_pressure;Samples;Min_cycle;Max_cycle;Signal;HPM_P1;HPM_P2
2022/08/16 00:02:29;;;;;;;21.67;18.25;;;;;;;20.03;69.19;100000.25;4992067;28;20069;-67
2022/08/16 00:04:55;;;;;;;22.20;18.13;;;;;;;20.00;69.37;99999.91;4992940;28;20046;-67
2022/08/16 00:07:26;;;;;;;22.88;18.40;;;;;;;19.98;69.34;100002.91;4992369;28;20050;-67
2022/08/16 00:09:55;;;;;;;21.02;17.20;;;;;;;19.89;69.47;100004.31;4991869;28;20435;-67
2022/08/16 00:12:22;;;;;;;19.83;17.60;;;;;;;20.05;68.87;100002.75;4992097;28;20050;-67
2022/08/16 00:14:53;;;;;;;20.25;16.17;;;;;;;20.13;68.46;100007.81;4991704;28;20113;-66
2022/08/16 00:17:23;;;;;;;21.35;16.92;;;;;;;20.04;68.84;100026.44;4991971;28;20486;-66
2022/08/16 00:19:50;;;;;;;19.13;16.63;;;;;;;19.95;68.85;100019.72;4992184;28;20108;-67
2022/08/16 00:22:20;;;;;;;23.73;17.88;;;;;;;19.98;68.70;100018.41;4992339;28;20058;-67
2022/08/16 00:24:52;;;;;;;19.92;16.38;;;;;;;20.00;68.27;100024.41;4992349;28;20096;-67
2022/08/16 00:27:21;;;;;;;22.98;16.40;;;;;;;20.08;68.15;100013.19;4991541;28;20495;-67
2022/08/16 00:29:47;;;;;;;20.58;17.08;;;;;;;20.09;67.93;100026.53;4991858;28;20128;-67
2022/08/16 00:32:35;;;;;;;19.13;17.13;;;;;;;20.08;67.92;100026.78;4991275;28;20042;-67
2022/08/16 00:35:05;;;;;;;25.52;16.88;;;;;;;20.00;68.13;100033.41;4990339;28;20046;-67
2022/08/16 00:37:42;;;;;;;23.67;17.10;;;;;;;20.12;67.28;100041.56;4991947;28;20057;-66
2022/08/16 00:40:27;;;;;;;18.60;16.38;;;;;;;19.94;67.74;100035.22;4991505;28;20129;-67
2022/08/16 00:43:02;;;;;;;18.52;15.30;;;;;;;19.74;68.79;100029.31;4992051;28;20161;-67
2022/08/16 00:46:08;;;;;;;22.90;16.83;;;;;;;19.78;68.84;100027.78;4992163;28;20058;-67
2022/08/16 00:48:56;;;;;;;19.50;16.73;;;;;;;19.83;68.19;100030.63;4977106;28;20039;-66
2022/08/16 00:51:24;;;;;;;19.10;16.92;;;;;;;19.79;68.26;100036.75;4982877;28;20046;-66
2022/08/16 00:53:54;;;;;;;;;;;;;;;19.70;68.63;100037.13;4992820;28;20388;-66
2022/08/16 00:56:28;;;;;;;18.00;15.55;;;;;;;19.72;68.55;100036.88;4992161;28;19922;-67
2022/08/16 00:59:17;;;;;;;21.25;16.48;;;;;;;19.79;68.55;100032.13;4991085;28;20049;-67
2022/08/16 01:01:45;;;;;;;20.63;16.98;;;;;;;19.81;68.22;100032.75;4991154;28;20070;-67
2022/08/16 01:04:16;;;;;;;24.95;18.52;;;;;;;19.66;68.91;100035.91;4991666;28;20058;-67
2022/08/16 01:07:24;;;;;;;18.45;16.50;;;;;;;19.70;69.05;100042.56;4991749;28;20450;-67
2022/08/16 01:10:11;;;;;;;20.05;17.17;;;;;;;19.72;68.84;100039.59;4990503;28;20510;-67
2022/08/16 01:12:42;;;;;;;20.00;16.17;;;;;;;19.73;68.71;100042.09;4991404;28;20047;-67
2022/08/16 01:15:09;;;;;;;19.52;16.35;;;;;;;19.67;68.90;100034.03;4994523;28;20510;-67
2022/08/16 01:17:36;;;;;;;19.13;16.38;;;;;;;19.69;68.90;100043.66;4994115;28;20486;-67
2022/08/16 01:20:07;;;;;;;22.65;17.35;;;;;;;19.65;68.90;100047.03;4991766;28;20092;-66
2022/08/16 01:23:19;;;;;;;23.23;17.87;;;;;;;19.52;69.13;100047.25;4992125;28;20054;-65
2022/08/16 01:25:51;;;;;;;21.77;17.42;;;;;;;19.48;69.36;100049.63;4991744;28;20278;-66
2022/08/16 01:28:39;;;;;;;21.80;17.50;;;;;;;19.51;69.13;100057.31;4991561;28;20048;-65
2022/08/16 01:31:13;;;;;;;19.83;17.77;;;;;;;19.47;69.36;100054.22;4991624;28;20132;-66
2022/08/16 01:33:40;;;;;;;25.08;18.63;;;;;;;19.43;69.45;100063.09;4991932;28;20449;-67
2022/08/16 01:36:10;;;;;;;27.00;18.88;;;;;;;19.49;69.13;100059.47;4997096;28;20053;-66
2022/08/16 01:38:42;;;;;;;20.45;17.23;;;;;;;19.40;69.22;100060.84;4990945;28;20045;-66
2022/08/16 01:41:21;;;;;;;26.80;19.83;;;;;;;19.32;69.50;100062.03;4991657;28;20185;-65
2022/08/16 01:43:50;;;;;;;24.33;18.15;;;;;;;19.43;69.27;100061.22;4990794;28;20482;-66
2022/08/16 01:46:19;;;;;;;21.45;19.30;;;;;;;19.34;69.82;100073.50;4991378;28;20074;-66
2022/08/16 01:49:13;;;;;;;23.08;18.63;;;;;;;19.27;70.17;100062.72;4991224;28;20479;-66
2022/08/16 01:51:42;;;;;;;22.23;18.75;;;;;;;19.45;69.17;100058.25;4990735;28;20125;-66
2022/08/16 01:54:10;;;;;;;23.48;19.55;;;;;;;19.36;69.45;100065.13;4990800;28;20051;-66
2022/08/16 01:56:39;;;;;;;24.25;19.42;;;;;;;19.38;69.36;100050.22;4991739;28;20213;-67
2022/08/16 01:59:08;;;;;;;24.67;19.25;;;;;;;19.42;69.11;100059.56;4990630;28;20105;-65
2022/08/16 02:01:43;;;;;;;24.02;20.00;;;;;;;19.29;69.21;100065.22;4991570;28;20048;-65
2022/08/16 02:04:20;;;;;;;21.70;19.13;;;;;;;19.13;69.88;100065.88;4990848;28;20390;-66
2022/08/16 02:07:11;;;;;;;22.98;19.13;;;;;;;19.16;70.13;100070.88;4991157;28;20136;-65
2022/08/16 02:09:39;;;;;;;27.98;20.25;;;;;;;19.15;70.38;100063.78;4986768;28;20043;-66
2022/08/16 02:12:08;;;;;;;29.80;20.85;;;;;;;19.20;69.83;100072.88;4991635;28;20089;-66
2022/08/16 02:14:55;;;;;;;25.00;19.67;;;;;;;19.27;69.56;100067.34;4990434;28;20050;-66
2022/08/16 02:17:25;;;;;;;25.63;19.90;;;;;;;19.26;69.81;100071.94;4990567;28;20501;-67
2022/08/16 02:19:54;;;;;;;24.10;19.45;;;;;;;19.27;69.16;100072.78;4989570;28;20050;-67
2022/08/16 02:22:27;;;;;;;22.33;19.92;;;;;;;19.24;69.61;100078.66;4978266;28;20050;-67
2022/08/16 02:25:05;;;;;;;28.08;21.08;;;;;;;19.25;69.63;100080.34;4993960;28;20046;-67
2022/08/16 02:27:35;;;;;;;25.30;21.10;;;;;;;19.44;68.70;100079.19;4993215;28;20494;-66
2022/08/16 02:30:05;;;;;;;29.58;21.35;;;;;;;19.49;68.37;100079.31;4994721;28;20073;-67
2022/08/16 02:32:31;;;;;;;22.77;19.42;;;;;;;19.49;68.28;100081.22;4994228;28;20058;-66
2022/08/16 02:35:19;;;;;;;24.90;20.75;;;;;;;19.49;68.61;100082.03;4993426;28;20050;-67
2022/08/16 02:37:51;;;;;;;27.00;20.90;;;;;;;19.35;69.17;100072.44;4993132;28;20437;-67
2022/08/16 02:40:22;;;;;;;23.45;20.95;;;;;;;19.41;69.41;100074.22;4994092;28;20575;-67
2022/08/16 02:42:52;;;;;;;25.65;21.17;;;;;;;19.67;67.92;100072.97;4994289;28;20046;-67
2022/08/16 02:45:22;;;;;;;25.55;21.42;;;;;;;19.78;67.54;100081.38;4994332;28;20053;-67
2022/08/16 02:47:51;;;;;;;29.25;21.55;;;;;;;19.84;67.62;100078.53;4994117;28;20066;-66
2022/08/16 02:50:38;;;;;;;27.10;22.10;;;;;;;19.77;67.42;100077.84;4993490;28;20497;-67
2022/08/16 02:53:24;;;;;;;27.08;21.77;;;;;;;19.77;67.37;100083.28;4993078;28;20062;-65
2022/08/16 02:55:52;;;;;;;24.42;21.17;;;;;;;19.73;67.82;100087.53;4993951;28;20038;-65
2022/08/16 02:58:21;;;;;;;23.55;20.55;;;;;;;19.75;67.21;100085.41;4993717;28;20439;-66
2022/08/16 03:01:49;;;;;;;25.02;21.70;;;;;;;-149.70;100.00;63222.41;4993253;28;20072;-67
2022/08/16 03:04:17;;;;;;;24.27;21.65;;;;;;;19.65;67.52;100090.56;4991383;28;20050;-67
2022/08/16 03:07:05;;;;;;;27.08;21.83;;;;;;;19.44;68.43;100089.25;4992933;28;20049;-66
2022/08/16 03:09:33;;;;;;;25.45;21.52;;;;;;;19.59;67.83;100089.63;4993262;28;20071;-67
2022/08/16 03:12:01;;;;;;;23.95;21.13;;;;;;;19.49;68.13;100095.66;4994302;28;20074;-67
2022/08/16 03:14:28;;;;;;;24.50;21.88;;;;;;;19.42;68.37;100099.53;4991623;28;20121;-67
2022/08/16 03:16:55;;;;;;;24.67;22.08;;;;;;;19.39;68.55;100102.72;4992028;28;20078;-66
2022/08/16 03:19:31;;;;;;;24.70;22.08;;;;;;;19.34;68.84;100100.69;4992724;28;20050;-65
2022/08/16 03:22:20;;;;;;;25.83;22.00;;;;;;;19.41;68.35;100101.41;4993583;28;20047;-66
2022/08/16 03:24:57;;;;;;;26.27;23.13;;;;;;;19.38;68.56;100111.94;4993232;28;20532;-66
2022/08/16 03:27:26;;;;;;;25.55;21.27;;;;;;;19.39;68.52;100095.41;4992764;28;20062;-65
2022/08/16 03:29:58;;;;;;;25.67;22.33;;;;;;;19.43;68.57;100096.56;4992670;28;20394;-65
2022/08/16 03:32:25;;;;;;;26.25;22.35;;;;;;;19.41;68.54;100103.31;4992062;28;20054;-66
2022/08/16 03:34:52;;;;;;;27.50;22.27;;;;;;;19.37;68.71;100099.41;4992299;28;20042;-66
2022/08/16 03:37:19;;;;;;;23.02;20.05;;;;;;;19.21;69.45;100100.91;4992266;28;20525;-66
2022/08/16 03:39:46;;;;;;;25.52;22.73;;;;;;;19.34;68.83;100106.13;4992865;28;20045;-66
2022/08/16 03:42:12;;;;;;;24.77;22.08;;;;;;;19.33;68.84;100112.63;4987427;28;20046;-66
2022/08/16 03:44:48;;;;;;;24.83;21.60;;;;;;;19.36;68.65;100106.72;4992798;28;20050;-65
2022/08/16 03:47:15;;;;;;;33.92;23.00;;;;;;;19.40;68.12;100104.38;4991929;28;20197;-66
2022/08/16 03:49:46;;;;;;;26.85;22.25;;;;;;;19.36;68.69;100106.72;4992358;28;20066;-66
2022/08/16 03:52:18;;;;;;;;;;;;;;;19.44;68.25;100106.38;4986183;28;20053;-67
2022/08/16 03:54:47;;;;;;;24.77;22.17;;;;;;;19.34;68.57;100111.56;4992151;28;20025;-66
2022/08/16 03:57:26;;;;;;;27.55;22.92;;;;;;;19.33;68.73;100104.47;4992454;28;20481;-67
2022/08/16 03:59:57;;;;;;;21.35;18.77;;;;;;;19.36;68.66;100105.91;4992085;28;20060;-66
2022/08/16 04:02:25;;;;;;;23.83;19.63;;;;;;;19.52;68.58;100107.97;4992265;28;20096;-67
2022/08/16 04:04:57;;;;;;;18.40;16.10;;;;;;;19.66;67.34;100109.41;4992430;28;20046;-66
2022/08/16 04:07:24;;;;;;;22.40;19.52;;;;;;;19.55;67.71;100112.91;4991742;28;20054;-66
2022/08/16 04:09:51;;;;;;;23.90;17.75;;;;;;;19.76;66.83;100119.69;4992133;28;20126;-66
2022/08/16 04:12:18;;;;;;;18.50;15.88;;;;;;;19.94;66.14;100116.88;4991612;28;20050;-66
2022/08/16 04:15:07;;;;;;;24.98;20.02;;;;;;;19.88;66.31;100117.81;4991618;28;20049;-66
2022/08/16 04:17:36;;;;;;;23.42;18.63;;;;;;;19.93;66.45;100123.41;4991765;28;20050;-66
2022/08/16 04:20:07;;;;;;;24.00;20.83;;;;;;;19.84;66.61;100122.09;4987607;28;20097;-66
2022/08/16 04:22:54;;;;;;;24.13;21.13;;;;;;;19.94;66.20;100122.34;5000201;28;20046;-66
2022/08/16 04:25:21;;;;;;;24.48;19.33;;;;;;;19.80;66.32;100115.47;4991573;28;20054;-66
2022/08/16 04:27:48;;;;;;;27.60;21.88;;;;;;;19.83;66.26;100125.03;4991616;28;20046;-66
2022/08/16 04:30:22;;;;;;;22.77;16.38;;;;;;;19.73;66.47;100131.91;4991925;28;20192;-66
2022/08/16 04:33:00;;;;;;;22.27;19.23;;;;;;;19.98;65.60;100140.91;4992216;28;20085;-66
2022/08/16 04:35:30;;;;;;;24.42;20.20;;;;;;;19.90;65.82;100132.03;4991516;28;20053;-66
2022/08/16 04:38:00;;;;;;;26.00;20.77;;;;;;;20.02;65.65;100133.94;4990388;28;20046;-67
2022/08/16 04:40:37;;;;;;;26.25;16.85;;;;;;;20.01;65.50;100135.00;5008690;28;20050;-66
2022/08/16 04:43:04;;;;;;;22.73;17.95;;;;;;;19.99;65.64;100135.22;5011719;28;20096;-66
2022/08/16 04:45:31;;;;;;;20.77;15.50;;;;;;;20.23;64.22;100146.13;4994046;28;20438;-66
2022/08/16 04:48:02;;;;;;;28.30;21.40;;;;;;;19.94;64.90;100144.13;5010967;28;20045;-66
2022/08/16 04:50:29;;;;;;;23.25;15.15;;;;;;;20.22;64.38;100153.47;5011202;28;20052;-66
2022/08/16 04:52:57;;;;;;;24.55;17.77;;;;;;;20.27;64.29;100147.28;5010244;28;20057;-64
2022/08/16 04:55:27;;;;;;;28.00;22.45;;;;;;;20.03;65.49;100151.91;5010138;28;20049;-66
2022/08/16 04:58:03;;;;;;;22.80;18.42;;;;;;;20.46;63.60;100148.03;5011220;28;20125;-66
2022/08/16 05:00:50;;;;;;;22.08;18.55;;;;;;;20.53;63.15;100162.34;5009704;28;20409;-65
2022/08/16 05:03:18;;;;;;;26.15;19.63;;;;;;;20.35;63.43;100161.38;5011364;28;20056;-65
2022/08/16 05:05:46;;;;;;;26.35;20.15;;;;;;;20.16;64.62;100157.94;5010859;28;20137;-66
2022/08/16 05:08:31;;;;;;;24.88;19.88;;;;;;;20.09;65.07;100157.25;5010574;28;20204;-66
2022/08/16 05:10:59;;;;;;;28.27;21.38;;;;;;;20.19;65.04;100156.66;5009820;28;20466;-66
2022/08/16 05:13:31;;;;;;;34.20;22.20;;;;;;;19.71;65.97;100165.84;5010332;28;20080;-66
2022/08/16 05:16:23;;;;;;;26.50;20.00;;;;;;;20.06;64.94;100165.06;5010171;28;20069;-66
2022/08/16 05:18:53;;;;;;;25.63;20.83;;;;;;;20.09;65.05;100154.53;5010754;28;20059;-66
2022/08/16 05:21:25;;;;;;;29.55;21.70;;;;;;;20.08;64.94;100171.09;5010718;28;20525;-66
2022/08/16 05:23:53;;;;;;;29.58;23.67;;;;;;;19.94;65.47;100170.50;5011222;28;20046;-66
2022/08/16 05:26:23;;;;;;;24.45;20.95;;;;;;;20.10;64.87;100171.69;5009982;28;20077;-66
2022/08/16 05:28:53;;;;;;;22.67;17.58;;;;;;;19.96;64.96;100171.09;5010811;28;20042;-66
2022/08/16 05:31:22;;;;;;;32.13;24.63;;;;;;;20.24;64.79;100172.28;5011155;28;20132;-66
2022/08/16 05:33:55;;;;;;;26.23;20.63;;;;;;;20.32;63.47;100175.47;5010454;28;20041;-65
2022/08/16 05:36:22;;;;;;;26.77;22.63;;;;;;;19.96;64.53;100177.34;5010785;28;20056;-65
2022/08/16 05:38:59;;;;;;;24.90;21.23;;;;;;;19.81;65.26;100174.28;5011269;28;20049;-65
2022/08/16 05:41:27;;;;;;;24.48;16.83;;;;;;;20.05;64.79;100175.13;5010966;28;20050;-65
2022/08/16 05:43:59;;;;;;;27.48;20.80;;;;;;;20.06;65.17;100176.78;5011195;28;20049;-65
2022/08/16 05:46:31;;;;;;;22.85;20.05;;;;;;;19.96;65.17;100174.63;5010570;28;20493;-65
2022/08/16 05:48:59;;;;;;;27.83;21.08;;;;;;;20.05;64.60;100177.03;5010336;28;20042;-65
2022/08/16 05:51:36;;;;;;;28.95;21.13;;;;;;;19.78;65.26;100176.63;5011527;28;20069;-65
2022/08/16 05:54:11;;;;;;;25.95;20.85;;;;;;;19.64;66.00;100173.28;5010985;28;20054;-65
2022/08/16 05:56:40;;;;;;;25.90;20.30;;;;;;;19.83;65.60;100174.88;5013232;28;20053;-65
2022/08/16 05:59:09;;;;;;;25.25;22.08;;;;;;;19.68;66.46;100174.50;5014636;28;20049;-65
2022/08/16 06:01:37;;;;;;;28.98;23.30;;;;;;;19.53;66.68;100168.63;5014588;28;20045;-68
2022/08/16 06:04:08;;;;;;;28.65;22.63;;;;;;;19.51;66.80;100179.75;5014644;28;20536;-67
2022/08/16 06:06:55;;;;;;;30.60;24.50;;;;;;;19.34;67.74;100168.69;5013605;28;20064;-68
2022/08/16 06:09:24;;;;;;;28.48;22.73;;;;;;;19.56;67.07;100179.06;5014321;28;20054;-67
2022/08/16 06:12:13;;;;;;;24.75;22.10;;;;;;;19.58;67.25;100180.47;5013492;28;20129;-67
2022/08/16 06:15:00;;;;;;;25.73;21.35;;;;;;;19.88;65.98;100185.06;5013742;28;20058;-67
2022/08/16 06:17:28;;;;;;;31.17;20.73;;;;;;;20.08;65.45;100182.00;5013018;28;20054;-68
2022/08/16 06:20:13;;;;;;;26.25;23.45;;;;;;;19.87;66.26;100180.69;5012412;28;20117;-67
2022/08/16 06:22:40;;;;;;;26.08;22.95;;;;;;;20.02;65.61;100185.66;5013046;28;20045;-69
2022/08/16 06:25:11;;;;;;;30.73;23.40;;;;;;;19.84;66.58;100197.47;5012351;28;20042;-67
2022/08/16 06:27:41;;;;;;;29.60;21.58;;;;;;;19.91;65.80;100199.03;5014079;28;20382;-67
2022/08/16 06:30:23;;;;;;;26.25;21.60;;;;;;;20.04;65.21;100200.72;5006163;28;20053;-68
2022/08/16 06:32:54;;;;;;;27.00;22.48;;;;;;;20.16;64.95;100206.97;5023939;28;20503;-68
2022/08/16 06:35:21;;;;;;;28.90;22.55;;;;;;;20.30;64.38;100207.56;5013548;28;20136;-68
2022/08/16 06:37:49;;;;;;;28.38;22.23;;;;;;;20.20;64.99;100213.59;5014206;28;20096;-66
2022/08/16 06:40:17;;;;;;;28.13;21.80;;;;;;;20.18;64.93;100218.47;4996018;28;20046;-68
2022/08/16 06:42:44;;;;;;;26.15;21.33;;;;;;;20.51;63.90;100216.25;5012572;28;20042;-67
2022/08/16 06:45:14;;;;;;;29.67;22.27;;;;;;;20.58;63.83;100220.50;5013064;28;20057;-67
2022/08/16 06:47:41;;;;;;;24.27;20.75;;;;;;;20.69;63.91;100218.81;5013640;28;20085;-67
2022/08/16 06:50:22;;;;;;;32.40;20.77;;;;;;;20.64;63.42;100225.00;5012780;28;20445;-67
2022/08/16 06:52:55;;;;;;;28.75;18.48;;;;;;;21.23;61.95;100229.50;5013000;28;20050;-67
2022/08/16 06:55:24;;;;;;;25.23;18.98;;;;;;;21.31;61.59;100224.47;5012802;28;20452;-67
2022/08/16 06:58:00;;;;;;;21.60;18.08;;;;;;;21.34;60.88;100240.38;5012941;28;20049;-67
2022/08/16 07:00:34;;;;;;;24.67;17.67;;;;;;;21.68;59.95;100226.81;5013387;28;20129;-68
2022/08/16 07:03:04;;;;;;;22.27;18.08;;;;;;;21.83;59.22;100232.53;5012760;28;20057;-67
2022/08/16 07:05:51;;;;;;;22.90;16.60;;;;;;;22.06;58.61;100228.84;5013114;28;20046;-67
2022/08/16 07:08:19;;;;;;;19.98;17.13;;;;;;;22.67;56.87;100228.13;5012193;28;20100;-68
2022/08/16 07:10:46;;;;;;;22.13;16.45;;;;;;;23.06;55.48;100228.91;5012934;28;20045;-68
2022/08/16 07:13:13;;;;;;;26.90;20.02;;;;;;;23.38;54.58;100225.47;5012947;28;20053;-67
2022/08/16 07:16:00;;;;;;;23.83;18.48;;;;;;;23.64;53.99;100224.66;5012577;28;20052;-68
2022/08/16 07:18:27;;;;;;;20.00;17.90;;;;;;;23.82;53.02;100233.59;5012431;28;20050;-68
2022/08/16 07:20:56;;;;;;;21.85;18.75;;;;;;;23.68;52.99;100235.91;5012705;28;20061;-68
2022/08/16 07:23:28;;;;;;;19.60;17.50;;;;;;;24.29;51.89;100235.59;5013287;28;20052;-68
2022/08/16 07:26:07;;;;;;;19.60;17.50;;;;;;;24.92;50.21;100239.28;5013663;28;20045;-69
2022/08/16 07:28:34;;;;;;;19.13;17.05;;;;;;;25.39;49.87;100243.88;5013133;28;20042;-68
2022/08/16 07:31:02;;;;;;;24.63;17.15;;;;;;;25.45;49.09;100245.56;5012488;28;20483;-68
2022/08/16 07:33:33;;;;;;;21.95;17.05;;;;;;;25.75;48.20;100252.22;5013591;28;20073;-69
2022/08/16 07:36:21;;;;;;;21.60;18.20;;;;;;;25.90;47.99;100249.50;5012487;28;20066;-68
2022/08/16 07:38:49;;;;;;;21.35;15.77;;;;;;;26.47;46.74;100253.88;5012907;28;20046;-68
2022/08/16 07:41:16;;;;;;;22.25;15.82;;;;;;;26.65;46.19;100255.19;5012554;28;20057;-68
2022/08/16 07:43:45;;;;;;;18.98;15.35;;;;;;;27.34;44.64;100253.59;5011969;28;20095;-67
2022/08/16 07:46:13;;;;;;;25.00;16.42;;;;;;;26.49;46.07;100256.34;5011741;28;20281;-67
2022/08/16 07:49:00;;;;;;;24.70;15.45;;;;;;;27.17;45.09;100259.44;5012521;28;20067;-67
2022/08/16 07:51:30;;;;;;;20.30;15.10;;;;;;;27.73;43.65;100267.44;5011797;28;20042;-68
2022/08/16 07:53:57;;;;;;;20.25;13.68;;;;;;;28.06;42.82;100270.50;5011381;28;20057;-68
2022/08/16 07:56:34;;;;;;;20.92;13.95;;;;;;;27.84;43.13;100264.59;5013179;28;20049;-67
2022/08/16 07:59:03;;;;;;;18.42;14.43;;;;;;;28.29;42.95;100266.19;5010902;28;20053;-68
2022/08/16 08:01:30;;;;;;;18.42;13.13;;;;;;;28.65;41.58;100263.09;5011462;28;20461;-68
2022/08/16 08:03:58;;;;;;;18.45;13.73;;;;;;;29.05;41.17;100261.84;5012213;28;20448;-68
2022/08/16 08:06:28;;;;;;;24.25;14.85;;;;;;;28.46;41.47;100265.78;5012656;28;20042;-68
2022/08/16 08:08:55;;;;;;;20.60;15.87;;;;;;;28.11;41.57;100266.88;5011541;28;20515;-68
2022/08/16 08:11:25;;;;;;;19.23;13.82;;;;;;;28.13;41.58;100261.91;5011891;28;20071;-68
2022/08/16 08:13:58;;;;;;;22.88;14.32;;;;;;;27.74;42.79;100268.25;5011909;28;20065;-68
2022/08/16 08:16:32;;;;;;;16.45;14.70;;;;;;;27.87;42.92;100273.16;5010542;28;20128;-68
2022/08/16 08:19:02;;;;;;;19.98;13.95;;;;;;;28.15;42.55;100266.03;5011278;28;20042;-68
2022/08/16 08:21:31;;;;;;;20.90;15.18;;;;;;;28.02;41.65;100277.72;5012097;28;20474;-68
2022/08/16 08:24:18;;;;;;;15.18;13.15;;;;;;;28.47;41.30;100280.41;5011579;28;20076;-67
2022/08/16 08:26:44;;;;;;;17.23;13.18;;;;;;;28.44;41.50;100288.13;5011264;28;20129;-67
2022/08/16 08:29:17;;;;;;;16.00;12.48;;;;;;;29.13;39.95;100294.31;5010122;28;20057;-68
2022/08/16 08:31:51;;;;;;;14.63;12.90;;;;;;;29.81;38.44;100293.13;5011251;28;20042;-68
2022/08/16 08:34:20;;;;;;;19.48;13.65;;;;;;;28.58;41.26;100287.44;5011329;28;20545;-69
2022/08/16 08:36:48;;;;;;;19.45;13.00;;;;;;;28.57;41.21;100283.88;5010958;28;20065;-68
2022/08/16 08:39:20;;;;;;;24.63;12.63;;;;;;;29.65;38.96;100285.38;5011235;28;20129;-69
2022/08/16 08:41:46;;;;;;;16.88;13.27;;;;;;;29.84;38.82;100283.41;5011305;28;20104;-68
2022/08/16 08:44:15;;;;;;;14.25;11.35;;;;;;;30.01;38.05;100299.47;5011411;28;20485;-69
2022/08/16 08:47:04;;;;;;;14.77;11.57;;;;;;;30.77;35.92;100300.94;5011652;28;20442;-68
2022/08/16 08:49:37;;;;;;;17.85;11.20;;;;;;;30.75;36.62;100297.66;5011435;28;20042;-68
2022/08/16 08:52:13;;;;;;;21.10;10.48;;;;;;;30.78;36.70;100297.06;5011227;28;20057;-69
2022/08/16 08:55:02;;;;;;;17.85;10.55;;;;;;;30.95;35.33;100302.00;5011820;28;20041;-69
2022/08/16 08:57:34;;;;;;;13.15;9.40;;;;;;;31.22;35.58;100297.56;5011262;28;20045;-68
2022/08/16 09:00:04;;;;;;;14.10;10.70;;;;;;;30.60;36.28;100302.66;5011164;28;20125;-68
2022/08/16 09:02:42;;;;;;;16.40;10.25;;;;;;;30.64;35.56;100296.22;5011515;28;20054;-69
2022/08/16 09:05:13;;;;;;;15.15;11.05;;;;;;;29.88;36.52;100297.44;5011284;28;20391;-69
2022/08/16 09:07:43;;;;;;;16.95;10.00;;;;;;;29.92;36.44;100301.28;5010886;28;20042;-68
2022/08/16 09:10:26;;;;;;;14.35;11.30;;;;;;;29.96;36.10;100300.38;5010597;28;20054;-68
2022/08/16 09:12:55;;;;;;;20.90;12.52;;;;;;;30.69;35.04;100304.41;5010973;28;20550;-69
2022/08/16 09:15:22;;;;;;;15.75;11.27;;;;;;;29.80;35.63;100301.72;5011425;28;20058;-69
2022/08/16 09:17:54;;;;;;;14.30;10.27;;;;;;;29.67;35.72;100305.22;5011501;28;20100;-69
2022/08/16 09:20:26;;;;;;;11.25;9.57;;;;;;;30.12;35.09;100308.44;5011167;28;20073;-69
2022/08/16 09:22:53;;;;;;;11.07;8.32;;;;;;;30.88;34.30;100304.34;5011412;28;20125;-69
2022/08/16 09:25:21;;;;;;;10.30;8.02;;;;;;;31.33;33.98;100312.03;5011041;28;20530;-68
2022/08/16 09:27:51;;;;;;;13.18;7.22;;;;;;;31.94;32.34;100311.50;5010622;28;20562;-68
2022/08/16 09:30:27;;;;;;;14.98;8.35;;;;;;;32.60;31.09;100311.81;5011955;28;20046;-68
2022/08/16 09:33:09;;;;;;;12.00;7.38;;;;;;;32.47;31.50;100306.31;5014863;28;20053;-69
2022/08/16 09:35:36;;;;;;;10.88;8.05;;;;;;;31.31;33.27;100308.75;5014525;28;20549;-69
2022/08/16 09:38:05;;;;;;;12.15;7.78;;;;;;;32.37;31.33;100307.41;5015544;28;20054;-69
2022/08/16 09:40:34;;;;;;;9.95;7.38;;;;;;;33.08;30.18;100308.28;5014562;28;20050;-69
2022/08/16 09:43:18;;;;;;;17.73;7.50;;;;;;;33.58;29.98;100313.50;5014414;28;20053;-69
2022/08/16 09:46:06;;;;;;;10.57;6.70;;;;;;;33.62;29.19;100305.34;5013913;28;20057;-69
2022/08/16 09:48:53;;;;;;;13.00;6.97;;;;;;;32.48;30.71;100303.28;5014116;28;20486;-69
2022/08/16 09:51:25;;;;;;;13.68;7.03;;;;;;;33.31;29.11;100297.09;5014728;28;20050;-69
2022/08/16 09:53:56;;;;;;;12.68;5.95;;;;;;;34.29;27.70;100292.88;5014570;28;20050;-69
2022/08/16 09:56:29;;;;;;;18.95;7.85;;;;;;;32.87;29.57;100293.31;5013854;28;20054;-69
2022/08/16 09:58:59;;;;;;;12.13;7.95;;;;;;;31.58;31.08;100302.38;5014676;28;20393;-68
2022/08/16 10:01:33;;;;;;;13.95;6.85;;;;;;;33.11;29.12;100288.19;5014459;28;20050;-69
2022/08/16 10:04:00;;;;;;;10.90;8.02;;;;;;;32.14;30.36;100293.56;5029740;28;20049;-69
2022/08/16 10:06:31;;;;;;;;;;;;;;;32.65;29.81;100288.66;5013743;28;20056;-69
2022/08/16 10:09:01;;;;;;;15.57;7.07;;;;;;;32.58;30.03;100294.69;5013799;28;20258;-69
2022/08/16 10:14:22;;;;;;;10.55;5.80;;;;;;;34.59;26.77;100295.75;5013449;28;20089;-69
2022/08/16 10:16:50;;;;;;;8.55;5.45;;;;;;;34.93;26.34;100292.84;5013702;28;20045;-69
2022/08/16 10:19:28;;;;;;;12.90;6.20;;;;;;;32.64;28.05;100285.03;5013348;28;20046;-67
2022/08/16 10:21:57;;;;;;;12.80;6.05;;;;;;;32.73;28.38;100281.50;5011588;28;20073;-68
2022/08/16 10:24:24;;;;;;;10.30;6.70;;;;;;;31.80;30.35;100293.28;5012795;28;20104;-68
2022/08/16 10:26:56;;;;;;;12.95;6.50;;;;;;;31.61;30.80;100288.72;5010207;28;20070;-68
2022/08/16 10:29:42;;;;;;;9.45;5.95;;;;;;;32.04;29.93;100285.50;5014521;28;20422;-68
2022/08/16 10:32:28;;;;;;;11.45;5.88;;;;;;;32.31;29.02;100294.81;5012488;28;20054;-69
2022/08/16 10:34:56;;;;;;;11.02;5.80;;;;;;;30.90;30.41;100287.41;5013911;28;20088;-69
2022/08/16 10:37:23;;;;;;;9.07;6.10;;;;;;;31.22;29.82;100281.75;5009866;28;20053;-69
2022/08/16 10:40:08;;;;;;;13.05;6.57;;;;;;;31.06;30.50;100286.00;5013081;28;20382;-69
2022/08/16 10:42:55;;;;;;;9.95;6.03;;;;;;;31.12;30.36;100281.97;5025494;28;20068;-68
2022/08/16 10:45:21;;;;;;;12.10;5.95;;;;;;;31.46;29.28;100291.78;5013279;28;20132;-68
2022/08/16 10:47:48;;;;;;;12.55;5.82;;;;;;;31.43;28.82;100292.41;5012854;28;20041;-69
2022/08/16 10:50:29;;;;;;;10.95;6.30;;;;;;;32.12;28.45;100281.13;5012967;28;20141;-68
2022/08/16 10:52:57;;;;;;;12.18;6.40;;;;;;;31.18;29.93;100280.75;5013597;28;20160;-68
2022/08/16 10:55:25;;;;;;;9.65;5.68;;;;;;;31.47;29.88;100287.88;5013126;28;20457;-69
2022/08/16 10:58:12;;;;;;;13.65;7.30;;;;;;;32.16;28.62;100284.91;5013713;28;20064;-68
2022/08/16 11:00:43;;;;;;;12.07;6.85;;;;;;;32.16;28.20;100285.75;5008181;28;20046;-68
2022/08/16 11:03:13;;;;;;;12.65;6.50;;;;;;;31.03;30.07;100286.63;5012804;28;20390;-69
2022/08/16 11:06:00;;;;;;;11.15;6.68;;;;;;;30.88;30.46;100284.09;5012694;28;20041;-68
2022/08/16 11:08:36;;;;;;;7.35;6.30;;;;;;;30.76;30.83;100288.22;5013064;28;20054;-70
2022/08/16 11:11:12;;;;;;;11.25;6.43;;;;;;;30.48;31.23;100286.53;5013722;28;20059;-68
2022/08/16 11:13:48;;;;;;;11.93;7.15;;;;;;;29.92;31.65;100281.91;5012360;28;20100;-70
2022/08/16 11:16:27;;;;;;;11.15;6.38;;;;;;;30.33;31.37;100287.63;5012623;28;20058;-70
2022/08/16 11:19:14;;;;;;;16.35;6.55;;;;;;;30.55;30.82;100286.97;5012553;28;20056;-70
2022/08/16 11:21:42;;;;;;;12.90;6.90;;;;;;;30.16;31.06;100274.34;5012891;28;20053;-70
2022/08/16 11:24:29;;;;;;;10.32;6.47;;;;;;;29.67;32.09;100289.47;5012128;28;20068;-70
2022/08/16 11:27:11;;;;;;;8.70;6.07;;;;;;;30.81;30.50;100287.28;5012719;28;20066;-68
2022/08/16 11:29:51;;;;;;;7.47;5.18;;;;;;;31.50;29.23;100284.47;5012513;28;20134;-69
2022/08/16 11:32:19;;;;;;;9.20;5.65;;;;;;;30.99;30.21;100293.88;5013147;28;20513;-68
2022/08/16 11:34:57;;;;;;;9.38;6.00;;;;;;;31.24;29.11;100290.59;5011914;28;20045;-67
2022/08/16 11:37:47;;;;;;;16.45;6.03;;;;;;;31.80;28.76;100290.50;5006788;28;20056;-68
2022/08/16 11:40:40;;;;;;;12.30;6.07;;;;;;;32.71;27.50;100289.31;5011757;28;20072;-68
2022/08/16 11:43:11;;;;;;;13.95;5.55;;;;;;;33.46;26.05;100295.81;5011869;28;20099;-68
2022/08/16 11:45:43;;;;;;;9.90;5.25;;;;;;;33.82;25.40;100295.50;5012796;28;20453;-68